Terminal Aerodrome Forecast
Issued by NWS

Home | Current Version | Previous Version | Text Only | Print | Product List | Glossary On
Versions: 1 2 3 4 5 6 7 8 9 10 11 12 13 14
000
FTUS42 KMLB 021140
TAFSFB
TAF
KSFB 021140Z 0212/0312 21003KT P6SM SKC
     FM021400 20005KT P6SM SCT025 SCT250
     FM021700 24007KT P6SM VCSH SCT035 SCT080
     FM022100 21005KT P6SM SCT050 SCT120=

USA.gov is the U.S. government's official web portal to all federal, state and local government web resources and services.